AR93 weather

Ark-Mo Airport
Pollard, Arkansas, United States

Public forecast

Using degrees Fahrenheit for public forecast. Weather courtesy of forecast.io.

Closest aviation weather report (METAR) to Ark-Mo Airport

Closest report is Poplar Bluff Municipal Airport, 17.4 nm (32.3 km) N. Retrieved 2019/12/05 18:53 UTC (18 minutes ago):

KPOF 051853Z AUTO 20008KT 10SM BKN110 14/03 A3004 RMK AO2 SLP173 T01390028

Closest aviation forecast (TAF) to Ark-Mo Airport

Forecast is more than 6 hours old.

Closest forecast is Jonesboro Municipal Airport, 43.1 nm (79.8 km) SSW. Retrieved 2019/12/05 12:27 UTC (7 hours ago):

TAF KJBR 051125Z 0512/0612 VRB03KT P6SM FEW150 BKN200 FM051500 18009KT P6SM OVC100 FM060100 16004KT P6SM OVC100 FM060900 11004KT 6SM -SHRA BR SCT015 BKN035